Grande Pointe, Florida
Current Conditions -  °F | °C
As of 7:53 PM on Saturday 20 Dec 2014 (Local Time) from KECP Reporting Station
Overcast Overcast  
Wind Chill: 54°   Ceiling: 3200
Heat Index: 54°   Visibility: 10mi
Dew Point: 51°   Wind: 10mph
Humidity: 90%   Direction: 20°NNE
Pressure: 30.11"   Gusts: NA
Location:  30.3525°N, 85.9093°W
Report Text: KECP 210153Z 02009KT 10SM OVC032 12/11 A3011 RMK AO2 SLP206 T01220106 $
Loading
Personal Weather Stations






























Interactive Weather Map New forecast layout! Learn more

10-Day Weather Forecast

Advertisements
Track Severe Weather on mobile